Time;durP1;ratioP1;P1;durP2;ratioP2;P2;SDS_P1;SDS_P2;PMS_P1;PMS_P2;Temp;Humidity;BMP_temperature;BMP_pressure;BME280_temperature;BME280_humidity;BME280_pressure;Samples;Min_cycle;Max_cycle;Signal;HPM_P1;HPM_P2
2023/09/18 00:00:58;;;;;;;38.35;26.30;;;18.00;1.00;;;;;;20526171;28;20133;-44
2023/09/18 00:11:00;;;;;;;41.78;28.10;;;18.20;1.00;;;;;;20531659;28;20049;-44
2023/09/18 00:21:01;;;;;;;37.80;26.40;;;18.30;1.00;;;;;;20539674;28;20042;-44
2023/09/18 00:31:01;;;;;;;36.35;26.40;;;18.40;99.90;;;;;;20538096;28;20514;-44
2023/09/18 00:41:02;;;;;;;28.47;20.40;;;18.50;99.90;;;;;;20543009;28;20070;-44
2023/09/18 00:51:03;;;;;;;21.70;17.27;;;18.50;99.90;;;;;;20540965;28;20370;-44
2023/09/18 01:01:04;;;;;;;26.33;19.98;;;18.50;99.90;;;;;;20540679;28;20530;-45
2023/09/18 01:11:14;;;;;;;22.45;18.40;;;18.50;99.90;;;;;;20534839;28;20050;-44
2023/09/18 01:21:14;;;;;;;24.90;20.23;;;18.50;99.90;;;;;;20542572;28;20280;-43
2023/09/18 01:31:17;;;;;;;26.58;19.45;;;18.50;99.90;;;;;;20540131;28;20043;-44
2023/09/18 01:41:18;;;;;;;20.27;17.50;;;18.50;99.90;;;;;;20532008;28;20086;-43
2023/09/18 01:51:19;;;;;;;23.98;17.33;;;18.50;99.90;;;;;;20533837;28;20294;-44
2023/09/18 02:01:19;;;;;;;27.07;20.90;;;18.50;99.90;;;;;;20525675;28;20154;-44
2023/09/18 02:11:20;;;;;;;26.75;20.52;;;18.60;99.90;;;;;;20522809;28;20942;-44
2023/09/18 02:21:21;;;;;;;32.45;23.67;;;18.70;99.90;;;;;;20523013;28;20360;-44
2023/09/18 02:31:22;;;;;;;28.13;21.88;;;19.00;99.90;;;;;;20528378;28;20531;-45
2023/09/18 02:41:23;;;;;;;25.90;20.40;;;19.20;99.90;;;;;;20524798;28;20046;-44
2023/09/18 02:51:23;;;;;;;25.23;20.40;;;19.20;99.90;;;;;;20527301;28;20481;-45
2023/09/18 03:01:24;;;;;;;22.48;17.23;;;19.20;99.90;;;;;;20526112;28;20399;-45
2023/09/18 03:11:27;;;;;;;22.83;18.15;;;19.10;99.90;;;;;;20526870;28;20033;-45
2023/09/18 03:21:27;;;;;;;25.98;20.38;;;19.00;99.90;;;;;;20543555;28;20057;-45
2023/09/18 03:31:29;;;;;;;28.90;22.70;;;19.00;99.90;;;;;;20541787;28;20034;-44
2023/09/18 03:41:33;;;;;;;28.42;21.02;;;19.00;99.90;;;;;;20529195;28;20081;-44
2023/09/18 03:51:34;;;;;;;23.65;19.05;;;19.30;99.90;;;;;;20539029;28;20046;-45
2023/09/18 04:01:34;;;;;;;21.23;17.48;;;19.30;99.90;;;;;;20545057;28;20522;-43
2023/09/18 04:11:36;;;;;;;21.63;17.52;;;19.60;99.90;;;;;;20549793;28;20178;-43
2023/09/18 04:21:37;;;;;;;5.47;2.80;;;19.60;99.90;;;;;;20552576;28;20054;-43
2023/09/18 04:31:38;;;;;;;13.65;8.85;;;18.80;99.90;;;;;;20546028;28;20093;-44
2023/09/18 04:41:38;;;;;;;17.13;13.68;;;18.40;99.90;;;;;;20541109;28;20046;-42
2023/09/18 04:51:39;;;;;;;16.55;12.73;;;18.70;99.90;;;;;;20541212;28;20521;-44
2023/09/18 05:01:40;;;;;;;15.23;12.30;;;18.60;99.90;;;;;;20538050;28;21822;-44
2023/09/18 05:11:41;;;;;;;18.52;12.55;;;18.50;99.90;;;;;;20538251;28;20044;-44
2023/09/18 05:21:43;;;;;;;16.15;12.68;;;18.50;99.90;;;;;;20542344;28;20038;-44
2023/09/18 05:31:43;;;;;;;15.65;11.90;;;18.40;99.90;;;;;;20537970;28;20090;-44
2023/09/18 05:41:44;;;;;;;21.13;15.13;;;18.40;1.00;;;;;;20543186;28;20429;-43
2023/09/18 05:51:47;;;;;;;20.77;14.90;;;18.60;1.00;;;;;;20537793;28;20118;-44
2023/09/18 06:01:49;;;;;;;27.02;19.25;;;18.60;1.00;;;;;;20541992;28;20053;-44
2023/09/18 06:11:49;;;;;;;23.75;18.35;;;18.60;1.00;;;;;;20534230;28;20038;-44
2023/09/18 06:21:50;;;;;;;19.33;16.30;;;18.70;1.00;;;;;;20534184;28;20510;-44
2023/09/18 06:31:51;;;;;;;21.95;15.25;;;18.80;1.00;;;;;;20527646;28;20046;-44
2023/09/18 06:41:51;;;;;;;18.70;14.10;;;18.80;1.00;;;;;;20531178;28;20050;-43
2023/09/18 06:51:52;;;;;;;17.17;12.50;;;18.80;1.00;;;;;;20534608;28;20092;-44
2023/09/18 07:01:53;;;;;;;16.17;11.27;;;18.80;1.00;;;;;;20471547;28;20474;-42
2023/09/18 07:11:53;;;;;;;16.90;10.63;;;18.90;1.00;;;;;;20511356;28;20031;-43
2023/09/18 07:21:54;;;;;;;14.77;10.73;;;19.00;1.00;;;;;;20510761;28;20043;-44
2023/09/18 07:31:54;;;;;;;13.93;9.05;;;19.00;99.90;;;;;;20522352;28;20042;-43
2023/09/18 07:41:55;;;;;;;12.43;8.18;;;19.10;99.90;;;;;;20509199;28;20352;-44
2023/09/18 07:51:56;;;;;;;17.13;11.15;;;19.00;99.90;;;;;;20532035;28;20134;-43
2023/09/18 08:01:57;;;;;;;15.98;11.15;;;19.10;99.90;;;;;;20551804;28;20050;-44
2023/09/18 08:11:58;;;;;;;13.98;10.40;;;19.10;99.90;;;;;;20569486;28;20545;-44
2023/09/18 08:22:01;;;;;;;13.80;10.70;;;19.10;99.90;;;;;;20567131;28;20077;-43
2023/09/18 08:32:02;;;;;;;14.95;11.35;;;19.20;99.90;;;;;;20575509;28;20035;-44
2023/09/18 08:42:03;;;;;;;14.10;9.75;;;19.40;99.90;;;;;;20579829;28;20045;-43
2023/09/18 08:52:04;;;;;;;10.60;8.32;;;19.60;99.90;;;;;;20588258;28;20493;-43
2023/09/18 09:02:05;;;;;;;13.77;8.57;;;19.80;99.90;;;;;;20574561;28;20141;-43
2023/09/18 09:12:06;;;;;;;11.55;7.97;;;20.00;99.90;;;;;;20544701;28;20048;-44
2023/09/18 09:22:09;;;;;;;8.07;6.25;;;20.00;99.90;;;;;;20550811;28;20055;-44
2023/09/18 09:32:17;;;;;;;7.43;5.85;;;19.90;99.90;;;;;;20582773;28;20042;-43
2023/09/18 09:42:28;;;;;;;7.40;5.82;;;19.80;98.60;;;;;;20581674;28;20051;-43
2023/09/18 09:52:28;;;;;;;8.68;6.05;;;19.80;75.30;;;;;;20585122;28;20391;-44
2023/09/18 10:02:30;;;;;;;9.32;5.30;;;19.70;76.60;;;;;;20558351;28;20046;-43
2023/09/18 10:12:33;;;;;;;7.85;6.57;;;19.60;94.60;;;;;;20552026;28;20038;-43
2023/09/18 10:22:38;;;;;;;8.70;6.95;;;19.70;80.30;;;;;;20541562;28;20040;-44
2023/09/18 10:32:40;;;;;;;10.20;7.20;;;19.70;99.90;;;;;;20527477;28;20545;-44
2023/09/18 10:42:42;;;;;;;7.55;6.78;;;19.90;56.50;;;;;;20534753;28;20098;-43
2023/09/18 10:52:46;;;;;;;8.45;6.32;;;20.20;38.40;;;;;;20524737;28;20478;-43
2023/09/18 11:02:49;;;;;;;6.47;5.80;;;20.50;9.50;;;;;;20535156;28;20266;-43
2023/09/18 11:12:49;;;;;;;9.65;6.00;;;20.80;1.00;;;;;;20536058;28;20042;-44
2023/09/18 11:23:12;;;;;;;7.20;5.70;;;20.80;1.00;;;;;;20504643;28;20034;-43
2023/09/18 11:33:13;;;;;;;11.85;6.10;;;21.20;1.00;;;;;;20527676;28;20047;-44
2023/09/18 11:43:23;;;;;;;9.10;5.90;;;21.80;1.00;;;;;;20525423;28;20256;-44
2023/09/18 11:53:26;;;;;;;6.93;4.55;;;22.30;1.00;;;;;;20523529;28;20177;-43
2023/09/18 12:03:26;;;;;;;6.35;4.55;;;21.90;1.00;;;;;;20527741;28;20064;-44
2023/09/18 12:13:29;;;;;;;5.25;3.85;;;21.80;1.00;;;;;;20544219;28;20035;-43
2023/09/18 12:23:37;;;;;;;6.70;4.28;;;22.50;1.00;;;;;;20550789;28;20471;-43
2023/09/18 12:33:39;;;;;;;6.55;3.90;;;23.10;1.00;;;;;;20528712;28;20042;-43
2023/09/18 12:43:41;;;;;;;5.80;3.60;;;23.00;1.00;;;;;;20537406;28;20101;-42
2023/09/18 12:53:42;;;;;;;4.80;3.30;;;22.80;1.00;;;;;;20547082;28;20038;-43
2023/09/18 13:03:44;;;;;;;5.40;3.70;;;22.50;1.00;;;;;;20534898;28;20041;-42
2023/09/18 13:13:44;;;;;;;7.32;3.60;;;22.30;1.00;;;;;;20531550;28;20588;-43
2023/09/18 13:23:45;;;;;;;7.13;4.97;;;22.10;1.00;;;;;;20531716;28;20446;-42
2023/09/18 13:33:45;;;;;;;4.75;3.83;;;22.90;1.00;;;;;;20538345;28;21367;-43
2023/09/18 13:43:47;;;;;;;4.65;3.65;;;23.30;1.00;;;;;;20542905;28;20137;-43
2023/09/18 13:53:48;;;;;;;5.55;3.70;;;23.30;1.00;;;;;;20558221;28;20391;-42
2023/09/18 14:03:50;;;;;;;4.60;3.78;;;23.30;1.00;;;;;;20564774;28;20113;-43
2023/09/18 14:13:51;;;;;;;5.53;2.90;;;22.90;1.00;;;;;;20545645;28;20133;-43
2023/09/18 14:23:52;;;;;;;7.22;3.33;;;22.70;1.00;;;;;;20538994;28;20031;-42
2023/09/18 14:33:52;;;;;;;4.75;2.20;;;22.30;1.00;;;;;;20499557;28;20647;-43
2023/09/18 14:43:53;;;;;;;5.82;2.67;;;22.10;1.00;;;;;;20532573;28;20667;-44
2023/09/18 14:53:54;;;;;;;4.68;2.88;;;21.90;1.00;;;;;;20524094;28;20039;-44
2023/09/18 15:03:55;;;;;;;4.53;1.30;;;21.30;1.00;;;;;;20537920;28;20065;-42
2023/09/18 15:13:55;;;;;;;1.85;1.05;;;19.00;1.00;;;;;;20535870;28;20055;-43
2023/09/18 15:23:57;;;;;;;1.92;1.00;;;17.60;78.10;;;;;;20528999;28;20173;-43
2023/09/18 15:33:58;;;;;;;3.55;1.48;;;17.30;99.90;;;;;;20533983;28;20053;-44
2023/09/18 15:43:58;;;;;;;3.83;1.60;;;17.20;99.90;;;;;;20536489;28;20042;-43
2023/09/18 15:53:59;;;;;;;2.47;1.25;;;17.30;99.90;;;;;;20591915;28;20046;-44
2023/09/18 16:04:00;;;;;;;3.95;1.42;;;17.50;99.90;;;;;;20596513;28;20062;-44
2023/09/18 16:14:00;;;;;;;4.97;1.48;;;17.80;99.90;;;;;;20537768;28;20797;-43
2023/09/18 16:24:06;;;;;;;3.92;1.90;;;18.00;99.90;;;;;;20537448;28;20068;-43
2023/09/18 16:34:07;;;;;;;4.70;2.22;;;18.00;99.90;;;;;;20543013;28;20062;-43
2023/09/18 16:44:08;;;;;;;4.90;2.20;;;18.20;90.90;;;;;;20542049;28;20043;-43
2023/09/18 16:54:08;;;;;;;4.15;2.13;;;18.30;90.50;;;;;;20548938;28;21012;-43
2023/09/18 17:04:11;;;;;;;4.97;2.40;;;18.50;72.00;;;;;;20540245;28;20077;-43
2023/09/18 17:14:12;;;;;;;7.55;2.53;;;18.40;97.10;;;;;;20548677;28;20049;-42
2023/09/18 17:24:12;;;;;;;6.65;2.38;;;18.10;99.90;;;;;;20517046;28;20047;-42
2023/09/18 17:34:13;;;;;;;9.05;2.20;;;18.10;99.90;;;;;;20530172;28;20070;-42
2023/09/18 17:44:14;;;;;;;5.72;2.38;;;18.10;99.90;;;;;;20535431;28;20054;-42
2023/09/18 17:54:15;;;;;;;9.98;2.22;;;18.20;88.90;;;;;;20530936;28;20046;-42
2023/09/18 18:04:15;;;;;;;7.32;1.73;;;18.20;50.30;;;;;;20531015;28;20448;-43
2023/09/18 18:14:16;;;;;;;6.28;1.90;;;18.20;7.40;;;;;;20532573;28;20030;-42
2023/09/18 18:24:17;;;;;;;7.60;1.77;;;18.30;1.00;;;;;;20526974;28;20054;-42
2023/09/18 18:34:17;;;;;;;8.25;1.80;;;18.20;2.80;;;;;;20536378;28;20050;-43
2023/09/18 18:44:18;;;;;;;11.20;2.30;;;18.30;1.00;;;;;;20533861;28;20057;-42
2023/09/18 18:54:19;;;;;;;9.52;2.42;;;18.30;1.00;;;;;;20529474;28;20635;-43
2023/09/18 19:04:20;;;;;;;10.70;2.67;;;18.30;1.00;;;;;;20545315;28;20043;-43
2023/09/18 19:14:20;;;;;;;9.18;2.10;;;18.30;1.00;;;;;;20547491;28;20126;-43
2023/09/18 19:24:21;;;;;;;6.97;2.53;;;18.10;2.80;;;;;;20544003;28;20495;-42
2023/09/18 19:34:21;;;;;;;8.27;2.20;;;17.70;1.00;;;;;;20553574;28;20050;-42
2023/09/18 19:44:22;;;;;;;7.10;2.55;;;17.00;24.90;;;;;;20564391;28;20042;-43
2023/09/18 19:54:24;;;;;;;10.75;2.45;;;16.80;99.90;;;;;;20575666;28;20039;-42
2023/09/18 20:04:25;;;;;;;16.10;3.28;;;16.60;99.90;;;;;;20566575;28;20137;-42
2023/09/18 20:14:25;;;;;;;8.38;2.75;;;16.60;99.90;;;;;;20546568;28;20090;-41
2023/09/18 20:24:26;;;;;;;6.22;2.15;;;16.50;99.90;;;;;;20536196;28;20030;-42
2023/09/18 20:34:27;;;;;;;11.23;2.00;;;16.40;99.90;;;;;;20534898;28;20046;-42
2023/09/18 20:44:28;;;;;;;8.07;2.00;;;16.30;99.90;;;;;;20547969;28;20031;-42
2023/09/18 20:54:29;;;;;;;8.00;2.13;;;16.30;99.90;;;;;;20545433;28;20141;-43
2023/09/18 21:04:29;;;;;;;5.03;1.80;;;16.30;99.90;;;;;;20549228;28;20150;-42
2023/09/18 21:14:30;;;;;;;11.10;2.40;;;16.20;99.90;;;;;;20537810;28;20170;-42
2023/09/18 21:24:31;;;;;;;6.80;2.03;;;16.20;99.90;;;;;;20541615;28;20395;-42
2023/09/18 21:34:35;;;;;;;7.82;1.85;;;16.20;99.90;;;;;;20544835;28;20603;-42
2023/09/18 21:44:37;;;;;;;7.40;2.00;;;16.30;71.80;;;;;;20542407;28;20038;-42
2023/09/18 21:54:38;;;;;;;7.28;1.50;;;15.90;65.40;;;;;;20537317;28;21282;-42
2023/09/18 22:04:39;;;;;;;11.20;1.67;;;15.80;64.40;;;;;;20535947;28;20517;-42
2023/09/18 22:14:40;;;;;;;9.93;1.65;;;15.70;87.20;;;;;;20540498;28;20069;-42
2023/09/18 22:24:40;;;;;;;5.90;1.50;;;15.70;16.30;;;;;;20532626;28;20410;-43
2023/09/18 22:34:41;;;;;;;3.97;1.35;;;15.40;57.90;;;;;;20534270;28;21059;-42
2023/09/18 22:45:19;;;;;;;4.30;1.70;;;15.20;46.20;;;;;;20529722;28;20054;-42
2023/09/18 22:55:20;;;;;;;9.17;1.60;;;15.10;35.20;;;;;;20533182;28;20043;-42
2023/09/18 23:05:23;;;;;;;5.90;1.35;;;14.80;49.90;;;;;;20537144;28;20069;-42
2023/09/18 23:15:24;;;;;;;4.93;1.20;;;14.80;30.80;;;;;;20538065;28;20607;-42
2023/09/18 23:25:25;;;;;;;6.28;1.30;;;14.60;50.20;;;;;;20536447;28;20034;-43
2023/09/18 23:35:27;;;;;;;4.85;1.17;;;14.50;58.40;;;;;;20526066;28;20490;-43
2023/09/18 23:45:32;;;;;;;10.40;1.20;;;14.40;59.60;;;;;;20535571;28;20694;-43
2023/09/18 23:55:32;;;;;;;7.00;1.70;;;14.30;94.30;;;;;;20532437;28;20109;-43
